Florence, Oregon
Current Conditions -  °F | °C
As of 5:15 AM on Thursday 27 Nov 2014 (Local Time) from KOTH Reporting Station
Overcast Overcast  
Wind Chill: 55°   Ceiling: 6500
Heat Index: 55°   Visibility: 10mi
Dew Point: 52°   Wind: 0mph
Humidity: 88%   Direction: NA
Pressure: 29.99"   Gusts: NA
Location:  43.97°N, 124.1°W
Report Text: KOTH 271315Z 00000KT 10SM OVC065 13/11 A2999 RMK AO1
Loading
Personal Weather Stations






























Interactive Weather Map New forecast layout! Learn more

10-Day Weather Forecast

Advertisements
Track Severe Weather on mobile